Time;durP1;ratioP1;P1;durP2;ratioP2;P2;SDS_P1;SDS_P2;PMS_P1;PMS_P2;Temp;Humidity;BMP_temperature;BMP_pressure;BME280_temperature;BME280_humidity;BME280_pressure;Samples;Min_cycle;Max_cycle;Signal;HPM_P1;HPM_P2
2021/12/30 00:00:58;;;;;;;12.32;8.27;;;9.20;93.80;;;;;;4977527;28;20046;-80
2021/12/30 00:03:24;;;;;;;11.32;8.15;;;9.20;93.90;;;;;;4980682;28;20034;-80
2021/12/30 00:05:52;;;;;;;9.73;6.90;;;9.20;93.70;;;;;;4975477;28;20035;-78
2021/12/30 00:08:19;;;;;;;12.98;8.02;;;9.20;93.60;;;;;;4978819;28;20077;-79
2021/12/30 00:10:45;;;;;;;10.50;7.78;;;9.20;93.60;;;;;;4978711;28;20022;-79
2021/12/30 00:13:11;;;;;;;11.00;7.78;;;9.20;93.60;;;;;;4977979;28;20049;-80
2021/12/30 00:15:38;;;;;;;10.77;7.65;;;9.20;93.50;;;;;;4979774;28;20023;-80
2021/12/30 00:18:05;;;;;;;10.63;7.20;;;9.20;93.50;;;;;;4977831;28;20023;-79
2021/12/30 00:20:32;;;;;;;13.30;8.13;;;9.10;93.40;;;;;;4977653;28;20053;-79
2021/12/30 00:23:02;;;;;;;12.80;8.48;;;9.20;93.50;;;;;;4977355;28;20027;-79
2021/12/30 00:25:28;;;;;;;11.73;7.90;;;9.20;93.70;;;;;;4978314;28;20506;-80
2021/12/30 00:27:53;;;;;;;13.70;8.52;;;9.20;93.50;;;;;;4978348;28;20108;-79
2021/12/30 00:30:19;;;;;;;11.10;7.90;;;9.20;93.80;;;;;;4977827;28;20026;-79
2021/12/30 00:32:45;;;;;;;11.70;8.20;;;9.20;93.90;;;;;;4977114;28;20026;-79
2021/12/30 00:35:11;;;;;;;11.88;7.82;;;9.20;93.70;;;;;;4977290;28;20027;-79
2021/12/30 00:37:38;;;;;;;12.23;7.97;;;9.20;93.80;;;;;;4976858;28;20481;-79
2021/12/30 00:40:05;;;;;;;12.05;8.27;;;9.20;93.80;;;;;;4976723;28;20073;-79
2021/12/30 00:42:30;;;;;;;12.13;7.90;;;9.20;93.60;;;;;;4978029;28;20023;-79
2021/12/30 00:44:55;;;;;;;11.80;7.72;;;9.20;93.70;;;;;;4977060;28;20042;-79
2021/12/30 00:47:21;;;;;;;12.23;7.50;;;9.20;93.90;;;;;;4976642;28;20042;-79
2021/12/30 00:49:47;;;;;;;11.32;7.70;;;9.20;93.70;;;;;;4978105;28;20424;-79
2021/12/30 00:52:12;;;;;;;13.90;8.10;;;9.30;93.60;;;;;;4976639;28;20026;-79
2021/12/30 00:54:38;;;;;;;12.55;8.32;;;9.20;93.50;;;;;;4976728;28;20033;-79
2021/12/30 00:57:03;;;;;;;11.90;7.55;;;9.20;93.40;;;;;;4976425;28;20033;-78
2021/12/30 00:59:29;;;;;;;10.63;7.53;;;9.20;93.50;;;;;;4976636;28;20090;-79
2021/12/30 01:01:54;;;;;;;12.70;8.13;;;9.20;93.50;;;;;;4975946;28;20133;-78
2021/12/30 01:04:21;;;;;;;11.43;7.85;;;9.20;93.40;;;;;;4976829;28;20023;-79
2021/12/30 01:06:47;;;;;;;13.00;8.00;;;9.20;93.60;;;;;;4976729;28;20026;-79
2021/12/30 01:09:13;;;;;;;11.55;7.68;;;9.20;93.60;;;;;;4976968;28;20093;-80
2021/12/30 01:11:39;;;;;;;13.50;8.10;;;9.20;93.60;;;;;;4977581;28;20488;-79
2021/12/30 01:14:15;;;;;;;11.73;7.45;;;9.20;93.60;;;;;;4979098;28;20476;-80
2021/12/30 01:16:43;;;;;;;12.43;7.47;;;9.20;93.60;;;;;;4977495;28;20022;-80
2021/12/30 01:19:42;;;;;;;14.50;7.43;;;9.20;93.60;;;;;;4978543;28;20098;-79
2021/12/30 01:22:16;;;;;;;12.82;7.45;;;9.20;93.60;;;;;;4976795;28;20391;-80
2021/12/30 01:24:43;;;;;;;11.48;7.32;;;9.20;93.60;;;;;;4978690;28;20031;-79
2021/12/30 01:27:08;;;;;;;13.38;7.22;;;9.20;93.80;;;;;;4977381;28;20037;-80
2021/12/30 01:29:34;;;;;;;15.23;7.60;;;9.20;94.10;;;;;;4977309;28;20118;-79
2021/12/30 01:32:00;;;;;;;14.15;7.18;;;9.20;94.20;;;;;;4976643;28;20027;-79
2021/12/30 01:34:28;;;;;;;14.50;7.03;;;9.30;94.10;;;;;;4976673;28;20054;-79
2021/12/30 01:36:55;;;;;;;13.82;6.65;;;9.30;94.00;;;;;;4976516;28;20023;-80
2021/12/30 01:39:22;;;;;;;14.20;6.57;;;9.20;93.90;;;;;;4976246;28;20027;-80
2021/12/30 01:41:49;;;;;;;13.98;6.93;;;9.30;93.90;;;;;;4976252;28;20023;-78
2021/12/30 01:44:15;;;;;;;15.13;7.38;;;9.30;94.00;;;;;;4977719;28;20034;-79
2021/12/30 01:46:43;;;;;;;13.82;6.65;;;9.30;94.00;;;;;;4977449;28;20038;-79
2021/12/30 01:49:11;;;;;;;13.57;6.82;;;9.30;94.10;;;;;;4976343;28;20023;-80
2021/12/30 01:51:37;;;;;;;14.13;6.80;;;9.30;93.80;;;;;;4975502;28;20121;-77
2021/12/30 01:54:04;;;;;;;13.60;6.55;;;9.30;94.00;;;;;;4977709;28;20023;-79
2021/12/30 01:56:29;;;;;;;14.20;6.82;;;9.20;94.00;;;;;;4977427;28;20031;-79
2021/12/30 01:58:56;;;;;;;11.75;6.90;;;9.30;94.20;;;;;;4976098;28;20023;-79
2021/12/30 02:01:22;;;;;;;15.07;7.00;;;9.30;94.30;;;;;;4976482;28;20050;-80
2021/12/30 02:03:48;;;;;;;13.93;7.05;;;9.30;94.30;;;;;;4977667;28;20097;-79
2021/12/30 02:06:13;;;;;;;14.48;6.63;;;9.30;94.30;;;;;;4976078;28;20369;-80
2021/12/30 02:08:39;;;;;;;15.13;6.47;;;9.30;94.60;;;;;;4976250;28;20023;-79
2021/12/30 02:11:05;;;;;;;14.52;6.45;;;9.30;94.60;;;;;;4976529;28;20129;-79
2021/12/30 02:13:30;;;;;;;14.55;6.35;;;9.30;94.60;;;;;;4975427;28;20034;-79
2021/12/30 02:16:01;;;;;;;15.73;6.90;;;9.30;94.70;;;;;;4975249;28;20027;-79
2021/12/30 02:18:27;;;;;;;15.98;6.95;;;9.30;94.80;;;;;;4976953;28;20029;-80
2021/12/30 02:20:55;;;;;;;17.00;6.82;;;9.30;94.70;;;;;;4975857;28;20094;-79
2021/12/30 02:23:28;;;;;;;17.33;6.43;;;9.30;94.90;;;;;;4978149;28;20117;-80
2021/12/30 02:25:56;;;;;;;18.25;6.70;;;9.30;94.80;;;;;;4980399;28;20035;-79
2021/12/30 02:28:25;;;;;;;13.20;6.20;;;9.30;95.00;;;;;;4980226;28;20131;-78
2021/12/30 02:30:53;;;;;;;18.40;6.75;;;9.30;95.30;;;;;;4978874;28;20476;-79
2021/12/30 02:33:19;;;;;;;15.23;6.32;;;9.30;95.10;;;;;;4980488;28;20106;-79
2021/12/30 02:35:45;;;;;;;13.43;5.82;;;9.30;95.20;;;;;;4979159;28;20429;-79
2021/12/30 02:38:11;;;;;;;16.92;6.30;;;9.30;94.90;;;;;;4979173;28;20023;-81
2021/12/30 02:40:45;;;;;;;13.98;6.20;;;9.30;95.00;;;;;;4980275;28;20420;-79
2021/12/30 02:43:15;;;;;;;13.85;6.03;;;9.30;94.90;;;;;;4978703;28;20065;-79
2021/12/30 02:45:41;;;;;;;19.02;5.70;;;9.30;94.70;;;;;;4980594;28;20030;-78
2021/12/30 02:48:12;;;;;;;14.05;5.57;;;9.30;94.90;;;;;;4978652;28;20033;-79
2021/12/30 02:50:37;;;;;;;14.25;5.88;;;9.30;95.10;;;;;;4978975;28;20082;-79
2021/12/30 02:53:03;;;;;;;12.85;5.53;;;9.30;95.10;;;;;;4979878;28;20057;-79
2021/12/30 02:55:28;;;;;;;17.75;5.95;;;9.30;95.00;;;;;;4978749;28;20027;-79
2021/12/30 02:57:54;;;;;;;14.25;5.20;;;9.30;95.30;;;;;;4979871;28;20023;-80
2021/12/30 03:00:19;;;;;;;16.58;6.20;;;9.30;95.30;;;;;;4978524;28;20031;-79
2021/12/30 03:02:45;;;;;;;18.05;5.90;;;9.30;95.50;;;;;;4978766;28;20030;-79
2021/12/30 03:05:16;;;;;;;14.95;5.63;;;9.30;95.40;;;;;;4979112;28;20022;-79
2021/12/30 03:07:41;;;;;;;17.75;6.18;;;9.30;95.50;;;;;;4979236;28;20538;-80
2021/12/30 03:10:17;;;;;;;13.88;5.68;;;9.30;95.20;;;;;;4980238;28;20023;-80
2021/12/30 03:12:43;;;;;;;17.55;5.57;;;9.30;95.30;;;;;;4978783;28;20480;-80
2021/12/30 03:15:13;;;;;;;16.02;5.68;;;9.30;95.40;;;;;;4979295;28;20026;-79
2021/12/30 03:17:39;;;;;;;15.27;5.80;;;9.30;95.00;;;;;;4976879;28;20023;-80
2021/12/30 03:20:09;;;;;;;16.52;6.22;;;9.30;95.10;;;;;;4979269;28;20093;-79
2021/12/30 03:22:35;;;;;;;15.75;6.03;;;9.30;95.20;;;;;;4979214;28;20550;-80
2021/12/30 03:25:01;;;;;;;14.27;5.68;;;9.30;95.40;;;;;;4978755;28;20031;-79
2021/12/30 03:27:27;;;;;;;14.82;5.57;;;9.30;95.20;;;;;;4979618;28;20094;-79
2021/12/30 03:29:52;;;;;;;14.23;5.60;;;9.30;94.70;;;;;;4978173;28;20037;-79
2021/12/30 03:32:18;;;;;;;14.90;5.32;;;9.30;95.10;;;;;;4977463;28;20023;-79
2021/12/30 03:34:44;;;;;;;17.67;6.25;;;9.30;95.10;;;;;;4978059;28;20092;-79
2021/12/30 03:37:09;;;;;;;14.13;5.20;;;9.30;95.30;;;;;;4978046;28;20051;-79
2021/12/30 03:39:35;;;;;;;16.92;6.03;;;9.30;94.80;;;;;;4979506;28;20031;-79
2021/12/30 03:42:01;;;;;;;13.43;5.70;;;9.30;94.80;;;;;;4977346;28;20030;-78
2021/12/30 03:44:27;;;;;;;16.20;5.82;;;9.30;94.90;;;;;;4977723;28;20036;-79
2021/12/30 03:49:22;;;;;;;14.35;5.38;;;9.30;94.80;;;;;;5015114;28;20515;-80
2021/12/30 03:51:47;;;;;;;14.32;5.40;;;9.30;94.60;;;;;;5016348;28;20029;-79
2021/12/30 03:54:14;;;;;;;15.05;5.32;;;9.30;94.40;;;;;;5016623;28;20578;-79
2021/12/30 03:56:40;;;;;;;19.58;6.78;;;9.30;94.60;;;;;;5016631;28;20075;-79
2021/12/30 03:59:06;;;;;;;15.68;5.97;;;9.30;94.60;;;;;;5016318;28;20086;-78
2021/12/30 04:01:32;;;;;;;14.77;5.75;;;9.30;94.60;;;;;;5017779;28;20430;-79
2021/12/30 04:03:58;;;;;;;17.02;5.93;;;9.30;94.70;;;;;;5015968;28;20021;-80
2021/12/30 04:06:24;;;;;;;16.73;6.15;;;9.40;94.90;;;;;;5017595;28;20022;-79
2021/12/30 04:08:50;;;;;;;16.15;6.38;;;9.30;94.80;;;;;;5016095;28;20455;-79
2021/12/30 04:11:15;;;;;;;14.98;5.90;;;9.30;95.30;;;;;;5016342;28;20057;-79
2021/12/30 04:13:41;;;;;;;16.52;5.80;;;9.30;95.30;;;;;;5015907;28;20029;-79
2021/12/30 04:16:07;;;;;;;19.17;7.30;;;9.40;95.30;;;;;;5016156;28;20025;-79
2021/12/30 04:18:32;;;;;;;16.20;5.75;;;9.40;95.40;;;;;;5017642;28;20387;-81
2021/12/30 04:20:58;;;;;;;18.08;6.45;;;9.40;94.80;;;;;;5017223;28;20068;-80
2021/12/30 04:23:23;;;;;;;14.57;6.05;;;9.30;95.10;;;;;;5016251;28;20026;-79
2021/12/30 04:25:49;;;;;;;15.82;6.40;;;9.40;95.00;;;;;;5016840;28;20026;-79
2021/12/30 04:28:16;;;;;;;14.13;5.88;;;9.40;95.00;;;;;;5016745;28;20465;-79
2021/12/30 04:30:42;;;;;;;16.50;6.55;;;9.40;95.20;;;;;;5017902;28;20054;-79
2021/12/30 04:33:07;;;;;;;18.20;7.18;;;9.40;95.40;;;;;;5016306;28;20026;-79
2021/12/30 04:35:33;;;;;;;18.00;7.05;;;9.40;95.50;;;;;;5016667;28;20076;-80
2021/12/30 04:37:59;;;;;;;16.00;7.30;;;9.40;95.70;;;;;;5016066;28;20033;-79
2021/12/30 04:40:27;;;;;;;18.00;7.10;;;9.40;95.60;;;;;;5016257;28;20057;-79
2021/12/30 04:42:53;;;;;;;16.80;6.50;;;9.40;95.50;;;;;;5016306;28;20518;-79
2021/12/30 04:45:19;;;;;;;15.52;6.85;;;9.40;95.30;;;;;;5016375;28;20022;-79
2021/12/30 04:47:44;;;;;;;16.58;7.15;;;9.40;95.50;;;;;;5015833;28;20029;-79
2021/12/30 04:50:13;;;;;;;16.70;7.38;;;9.40;95.50;;;;;;5017220;28;20068;-79
2021/12/30 04:52:40;;;;;;;17.02;7.30;;;9.40;95.60;;;;;;5015733;28;20073;-79
2021/12/30 04:55:07;;;;;;;16.15;6.95;;;9.40;95.50;;;;;;5016128;28;20088;-80
2021/12/30 04:57:32;;;;;;;19.85;7.53;;;9.40;95.30;;;;;;5016205;28;20049;-78
2021/12/30 04:59:58;;;;;;;17.85;8.25;;;9.40;95.60;;;;;;5015947;28;20017;-79
2021/12/30 05:02:29;;;;;;;18.17;8.00;;;9.40;95.60;;;;;;5017172;28;20030;-79
2021/12/30 05:04:55;;;;;;;19.52;7.72;;;9.40;95.80;;;;;;5015863;28;20102;-79
2021/12/30 05:07:20;;;;;;;15.68;8.10;;;9.40;95.80;;;;;;5015679;28;20552;-80
2021/12/30 05:09:46;;;;;;;16.83;7.75;;;9.40;95.90;;;;;;5015611;28;20028;-79
2021/12/30 05:12:11;;;;;;;15.60;7.45;;;9.40;95.80;;;;;;5016891;28;20076;-80
2021/12/30 05:14:37;;;;;;;18.40;7.90;;;9.40;95.60;;;;;;5016624;28;20077;-79
2021/12/30 05:17:03;;;;;;;20.83;8.10;;;9.40;95.80;;;;;;5013490;28;20509;-79
2021/12/30 05:19:30;;;;;;;16.75;7.57;;;9.40;95.80;;;;;;5003301;28;20036;-80
2021/12/30 05:21:56;;;;;;;18.15;8.07;;;9.40;95.80;;;;;;5011192;28;20033;-80
2021/12/30 05:24:22;;;;;;;17.30;8.40;;;9.40;95.70;;;;;;5016050;28;20026;-80
2021/12/30 05:26:47;;;;;;;21.02;9.77;;;9.40;95.70;;;;;;5017153;28;20105;-79
2021/12/30 05:29:15;;;;;;;17.92;8.63;;;9.40;95.90;;;;;;5015731;28;20022;-79
2021/12/30 05:31:41;;;;;;;16.88;8.00;;;9.40;96.00;;;;;;5015734;28;20061;-78
2021/12/30 05:34:06;;;;;;;21.00;8.70;;;9.40;96.10;;;;;;5014907;28;20057;-80
2021/12/30 05:36:32;;;;;;;19.10;9.05;;;9.40;96.00;;;;;;5016468;28;20045;-81
2021/12/30 05:38:57;;;;;;;19.67;8.52;;;9.40;96.20;;;;;;5015573;28;20129;-79
2021/12/30 05:41:25;;;;;;;20.75;9.05;;;9.40;96.10;;;;;;5016938;28;20033;-80
2021/12/30 05:43:51;;;;;;;20.55;9.25;;;9.40;96.30;;;;;;5015578;28;20033;-79
2021/12/30 05:46:17;;;;;;;18.30;7.90;;;9.40;96.10;;;;;;5015111;28;20025;-80
2021/12/30 05:48:42;;;;;;;21.33;9.68;;;9.40;96.00;;;;;;5015031;28;20041;-80
2021/12/30 05:51:08;;;;;;;20.15;9.38;;;9.40;96.10;;;;;;5015875;28;20022;-79
2021/12/30 05:53:34;;;;;;;15.32;8.27;;;9.40;96.10;;;;;;5016586;28;20060;-79
2021/12/30 05:55:59;;;;;;;20.02;8.68;;;9.40;96.00;;;;;;5015472;28;20049;-80
2021/12/30 05:58:25;;;;;;;15.38;7.22;;;9.40;95.80;;;;;;5017008;28;20112;-80
2021/12/30 06:00:51;;;;;;;20.15;8.80;;;9.40;95.40;;;;;;5020712;28;20076;-79
2021/12/30 06:03:19;;;;;;;16.17;9.60;;;9.40;95.60;;;;;;5018916;28;20028;-81
2021/12/30 06:05:48;;;;;;;19.35;9.52;;;9.40;95.70;;;;;;5020270;28;20104;-80
2021/12/30 06:08:14;;;;;;;22.77;9.98;;;9.40;95.90;;;;;;5019179;28;20025;-80
2021/12/30 06:10:41;;;;;;;18.40;9.32;;;9.40;96.10;;;;;;5019096;28;20105;-80
2021/12/30 06:13:06;;;;;;;17.20;9.50;;;9.40;96.10;;;;;;5020578;28;20029;-80
2021/12/30 06:15:32;;;;;;;20.35;9.95;;;9.40;96.10;;;;;;5018799;28;20022;-80
2021/12/30 06:17:57;;;;;;;21.05;9.85;;;9.40;96.30;;;;;;5020282;28;20058;-80
2021/12/30 06:20:23;;;;;;;18.92;9.55;;;9.50;96.30;;;;;;5021051;28;20033;-80
2021/12/30 06:22:49;;;;;;;21.17;10.20;;;9.40;96.20;;;;;;5020896;28;20030;-80
2021/12/30 06:25:15;;;;;;;19.10;10.32;;;9.40;96.40;;;;;;5019182;28;20033;-79
2021/12/30 06:27:40;;;;;;;19.33;10.25;;;9.50;96.40;;;;;;5018951;28;20756;-80
2021/12/30 06:30:07;;;;;;;20.13;10.48;;;9.40;96.30;;;;;;5020776;28;20495;-81
2021/12/30 06:32:33;;;;;;;19.02;9.95;;;9.40;96.30;;;;;;5019969;28;20026;-80
2021/12/30 06:34:58;;;;;;;20.83;11.05;;;9.40;96.40;;;;;;5019978;28;20104;-80
2021/12/30 06:37:24;;;;;;;19.60;10.52;;;9.50;96.40;;;;;;5020114;28;20021;-79
2021/12/30 06:39:49;;;;;;;17.55;10.38;;;9.40;96.20;;;;;;5019452;28;20026;-79
2021/12/30 06:42:15;;;;;;;19.20;9.40;;;9.50;96.20;;;;;;5018430;28;20026;-80
2021/12/30 06:44:40;;;;;;;17.38;9.65;;;9.50;96.20;;;;;;5018652;28;20037;-80
2021/12/30 06:47:06;;;;;;;18.00;9.95;;;9.50;96.30;;;;;;5019653;28;20080;-79
2021/12/30 06:49:36;;;;;;;17.63;9.85;;;9.50;96.40;;;;;;5018890;28;20041;-79
2021/12/30 06:52:08;;;;;;;17.08;10.50;;;9.40;96.10;;;;;;5018236;28;20026;-81
2021/12/30 06:54:33;;;;;;;19.10;10.93;;;9.40;96.30;;;;;;5017575;28;20022;-79
2021/12/30 06:57:00;;;;;;;16.30;10.07;;;9.50;96.40;;;;;;5017315;28;20081;-84
2021/12/30 06:59:27;;;;;;;19.65;10.85;;;9.50;96.30;;;;;;5018241;28;20093;-79
2021/12/30 07:01:56;;;;;;;16.10;9.95;;;9.50;96.60;;;;;;5009891;28;20073;-79
2021/12/30 07:04:22;;;;;;;17.45;10.50;;;9.50;96.30;;;;;;5015385;28;20029;-77
2021/12/30 07:06:47;;;;;;;15.18;10.45;;;9.50;96.40;;;;;;5015607;28;20026;-80
2021/12/30 07:09:13;;;;;;;16.15;10.43;;;9.50;96.50;;;;;;5015839;28;20509;-80
2021/12/30 07:11:39;;;;;;;16.40;11.00;;;9.50;97.00;;;;;;5014892;28;20064;-80
2021/12/30 07:14:05;;;;;;;16.77;10.48;;;9.50;97.10;;;;;;5014712;28;20041;-79
2021/12/30 07:16:31;;;;;;;16.70;10.82;;;9.50;96.80;;;;;;5014067;28;20033;-78
2021/12/30 07:18:56;;;;;;;16.17;10.80;;;9.50;96.90;;;;;;5014374;28;20018;-79
2021/12/30 07:21:22;;;;;;;16.73;10.90;;;9.50;96.80;;;;;;5013380;28;20075;-79
2021/12/30 07:23:48;;;;;;;17.38;10.93;;;9.50;96.80;;;;;;5016905;28;20026;-82
2021/12/30 07:26:13;;;;;;;19.02;11.90;;;9.50;96.70;;;;;;5015512;28;20025;-80
2021/12/30 07:28:39;;;;;;;17.40;11.60;;;9.50;96.70;;;;;;5014416;28;20364;-79
2021/12/30 07:31:04;;;;;;;17.27;11.15;;;9.50;96.60;;;;;;5015114;28;20164;-79
2021/12/30 07:33:30;;;;;;;18.05;11.13;;;9.50;96.70;;;;;;5013211;28;20080;-80
2021/12/30 07:35:56;;;;;;;18.85;11.45;;;9.50;96.80;;;;;;5013528;28;20030;-78
2021/12/30 07:38:22;;;;;;;16.17;11.02;;;9.50;96.80;;;;;;5014161;28;20021;-79
2021/12/30 07:40:48;;;;;;;17.17;11.77;;;9.50;96.90;;;;;;5014252;28;20033;-77
2021/12/30 07:43:14;;;;;;;16.70;11.45;;;9.50;97.00;;;;;;5012357;28;20029;-80
2021/12/30 07:45:40;;;;;;;16.90;11.20;;;9.50;96.90;;;;;;5014174;28;20499;-78
2021/12/30 07:48:05;;;;;;;17.63;11.55;;;9.60;97.00;;;;;;5012777;28;20038;-78
2021/12/30 07:50:31;;;;;;;15.93;10.95;;;9.60;97.00;;;;;;5009460;28;20347;-80
2021/12/30 07:52:57;;;;;;;17.92;11.80;;;9.50;97.00;;;;;;5011456;28;20095;-80
2021/12/30 07:55:23;;;;;;;15.27;10.90;;;9.60;97.00;;;;;;5012567;28;20033;-78
2021/12/30 07:57:49;;;;;;;16.27;11.23;;;9.50;97.00;;;;;;5011284;28;20018;-79
2021/12/30 08:00:16;;;;;;;15.68;11.45;;;9.50;96.90;;;;;;5012856;28;20025;-80
2021/12/30 08:02:43;;;;;;;17.17;11.20;;;9.60;97.00;;;;;;5012504;28;20022;-80
2021/12/30 08:05:17;;;;;;;16.58;11.40;;;9.50;97.00;;;;;;5011802;28;20403;-80
2021/12/30 08:07:45;;;;;;;15.98;10.88;;;9.60;97.00;;;;;;5011215;28;20120;-79
2021/12/30 08:10:14;;;;;;;17.05;12.27;;;9.60;97.00;;;;;;5011497;28;20030;-80
2021/12/30 08:12:41;;;;;;;18.35;11.98;;;9.50;97.00;;;;;;5011103;28;20376;-78
2021/12/30 08:15:08;;;;;;;17.08;11.43;;;9.60;97.00;;;;;;5013464;28;20037;-78
2021/12/30 08:17:35;;;;;;;16.90;11.35;;;9.60;97.00;;;;;;5013573;28;20046;-79
2021/12/30 08:20:01;;;;;;;17.55;11.88;;;9.60;96.70;;;;;;5011108;28;20044;-80
2021/12/30 08:22:27;;;;;;;18.02;12.48;;;9.60;96.80;;;;;;5012526;28;20476;-78
2021/12/30 08:24:52;;;;;;;16.58;12.05;;;9.60;96.90;;;;;;5009113;28;20113;-78
2021/12/30 08:27:18;;;;;;;14.95;11.55;;;9.60;96.90;;;;;;5011781;28;20695;-78
2021/12/30 08:29:43;;;;;;;16.88;12.75;;;9.70;96.90;;;;;;5010949;28;20438;-77
2021/12/30 08:32:11;;;;;;;15.35;11.25;;;9.70;97.10;;;;;;5011502;28;20104;-78
2021/12/30 08:34:37;;;;;;;15.95;11.65;;;9.70;97.10;;;;;;5011526;28;20022;-79
2021/12/30 08:37:03;;;;;;;16.75;11.75;;;9.70;96.70;;;;;;5010197;28;20064;-78
2021/12/30 08:39:30;;;;;;;15.40;11.60;;;9.70;96.20;;;;;;5011841;28;20065;-77
2021/12/30 08:41:56;;;;;;;18.02;12.05;;;9.70;96.50;;;;;;5011777;28;20109;-78
2021/12/30 08:44:24;;;;;;;16.02;11.98;;;9.80;96.70;;;;;;5010796;28;20034;-76
2021/12/30 08:46:51;;;;;;;15.88;11.35;;;9.80;96.70;;;;;;5012267;28;20064;-80
2021/12/30 08:49:16;;;;;;;16.20;11.07;;;9.80;96.80;;;;;;5011139;28;20069;-78
2021/12/30 08:51:42;;;;;;;15.57;10.77;;;9.80;96.70;;;;;;5011597;28;20069;-78
2021/12/30 08:54:07;;;;;;;14.27;10.98;;;9.80;96.80;;;;;;5011887;28;20275;-77
2021/12/30 08:56:33;;;;;;;17.65;11.02;;;9.80;96.80;;;;;;5011776;28;20029;-78
2021/12/30 08:58:59;;;;;;;14.90;10.43;;;9.80;96.70;;;;;;5010661;28;20026;-79
2021/12/30 09:01:24;;;;;;;18.95;11.30;;;9.80;97.10;;;;;;5001473;28;20078;-77
2021/12/30 09:03:50;;;;;;;19.10;10.88;;;9.80;97.40;;;;;;5010370;28;20286;-79
2021/12/30 09:06:15;;;;;;;16.30;10.68;;;9.80;97.30;;;;;;5012211;28;20030;-78
2021/12/30 09:08:41;;;;;;;16.08;9.45;;;9.80;97.40;;;;;;5013526;28;20170;-77
2021/12/30 09:11:06;;;;;;;15.15;10.30;;;9.80;97.30;;;;;;5013998;28;20518;-82
2021/12/30 09:13:32;;;;;;;18.02;10.82;;;9.80;97.30;;;;;;5013514;28;20025;-82
2021/12/30 09:15:58;;;;;;;15.38;9.32;;;9.80;97.30;;;;;;5018807;28;20041;-81
2021/12/30 09:18:24;;;;;;;13.98;9.75;;;9.80;97.50;;;;;;5015387;28;20037;-80
2021/12/30 09:20:51;;;;;;;13.45;9.68;;;9.80;97.30;;;;;;5014796;28;20022;-80
2021/12/30 09:23:16;;;;;;;12.00;8.65;;;9.80;97.30;;;;;;5013018;28;20037;-81
2021/12/30 09:25:42;;;;;;;15.93;9.57;;;9.80;97.40;;;;;;5012398;28;20087;-80
2021/12/30 09:28:11;;;;;;;15.02;8.95;;;9.80;97.60;;;;;;5012788;28;20101;-80
2021/12/30 09:30:37;;;;;;;17.20;9.15;;;9.80;97.60;;;;;;5013465;28;20125;-80
2021/12/30 09:33:04;;;;;;;12.43;8.38;;;9.80;97.60;;;;;;5016762;28;20065;-78
2021/12/30 09:35:30;;;;;;;13.95;8.60;;;9.80;97.90;;;;;;5015686;28;20034;-80
2021/12/30 09:37:56;;;;;;;12.57;8.50;;;9.80;97.90;;;;;;5018005;28;20029;-80
2021/12/30 09:40:22;;;;;;;11.32;7.97;;;9.80;97.80;;;;;;4999825;28;20372;-78
2021/12/30 09:42:53;;;;;;;11.98;8.32;;;9.80;97.90;;;;;;4997719;28;20037;-79
2021/12/30 09:45:19;;;;;;;12.20;8.13;;;9.80;98.10;;;;;;4995431;28;20033;-79
2021/12/30 09:47:51;;;;;;;10.77;7.60;;;9.80;98.20;;;;;;4995742;28;20104;-79
2021/12/30 09:50:19;;;;;;;10.07;7.35;;;9.80;97.90;;;;;;4996559;28;20026;-79
2021/12/30 09:52:45;;;;;;;10.43;7.50;;;9.90;98.70;;;;;;4995544;28;20026;-79
2021/12/30 09:55:11;;;;;;;12.73;7.38;;;9.90;98.20;;;;;;4996587;28;20056;-77
2021/12/30 09:57:38;;;;;;;12.50;7.53;;;9.90;97.90;;;;;;4996967;28;20069;-78
2021/12/30 10:00:07;;;;;;;10.10;7.20;;;9.90;97.80;;;;;;4995262;28;20026;-78
2021/12/30 10:02:32;;;;;;;9.80;6.68;;;9.90;98.80;;;;;;4994212;28;20121;-78
2021/12/30 10:05:11;;;;;;;10.00;7.13;;;9.90;99.30;;;;;;4995094;28;20061;-79
2021/12/30 10:07:39;;;;;;;9.52;6.63;;;9.80;99.50;;;;;;4996009;28;20114;-78
2021/12/30 10:10:25;;;;;;;9.30;6.30;;;9.80;99.60;;;;;;4995955;28;20025;-76
2021/12/30 10:12:51;;;;;;;8.40;5.93;;;9.80;99.50;;;;;;4993948;28;20515;-81
2021/12/30 10:15:19;;;;;;;9.43;6.35;;;9.80;99.70;;;;;;4995603;28;20039;-78
2021/12/30 10:17:56;;;;;;;8.95;6.25;;;9.80;99.50;;;;;;4994150;28;20080;-78
2021/12/30 10:20:27;;;;;;;9.23;6.38;;;9.80;99.70;;;;;;5000545;28;20023;-81
2021/12/30 10:22:55;;;;;;;9.27;6.17;;;9.80;99.70;;;;;;4999377;28;20484;-79
2021/12/30 10:25:31;;;;;;;9.50;6.40;;;9.80;99.60;;;;;;4997455;28;20044;-79
2021/12/30 10:28:18;;;;;;;9.10;5.72;;;9.80;99.60;;;;;;4997427;28;20026;-78
2021/12/30 10:30:43;;;;;;;9.10;5.82;;;9.80;99.50;;;;;;4997277;28;20655;-81
2021/12/30 10:33:15;;;;;;;8.93;6.03;;;9.80;99.50;;;;;;4996512;28;20038;-79
2021/12/30 10:35:41;;;;;;;9.18;5.43;;;9.80;99.60;;;;;;4997377;28;20026;-82
2021/12/30 10:38:11;;;;;;;9.57;5.43;;;9.80;99.70;;;;;;4995409;28;20546;-78
2021/12/30 10:40:47;;;;;;;10.05;5.93;;;9.80;99.80;;;;;;4998360;28;20033;-79
2021/12/30 10:43:45;;;;;;;10.38;5.05;;;9.80;99.60;;;;;;5017695;28;20992;-78
2021/12/30 10:46:25;;;;;;;8.85;5.32;;;9.90;99.70;;;;;;5025007;28;20033;-79
2021/12/30 10:48:57;;;;;;;8.07;4.90;;;9.80;99.60;;;;;;5018597;28;20497;-81
2021/12/30 10:51:41;;;;;;;8.60;5.18;;;9.80;99.70;;;;;;5015752;28;20033;-81
2021/12/30 10:54:34;;;;;;;10.68;4.97;;;9.90;99.70;;;;;;5011193;28;20030;-80
2021/12/30 10:57:10;;;;;;;8.75;4.82;;;9.80;99.90;;;;;;5011458;28;20056;-80
2021/12/30 10:59:43;;;;;;;8.30;5.05;;;9.90;99.80;;;;;;5013528;28;20466;-79
2021/12/30 11:02:16;;;;;;;7.93;4.80;;;9.90;99.90;;;;;;5012549;28;20517;-81
2021/12/30 11:04:45;;;;;;;9.30;5.50;;;9.80;99.90;;;;;;5013027;28;20556;-79
2021/12/30 11:07:17;;;;;;;8.73;5.50;;;9.80;99.60;;;;;;4993145;28;20050;-80
2021/12/30 11:09:58;;;;;;;8.02;4.88;;;9.90;99.90;;;;;;4994218;28;20080;-80
2021/12/30 11:12:33;;;;;;;8.85;5.40;;;9.90;99.90;;;;;;5013443;28;20034;-79
2021/12/30 11:15:05;;;;;;;10.07;5.65;;;9.90;99.90;;;;;;5012198;28;20097;-80
2021/12/30 11:17:35;;;;;;;8.07;5.22;;;9.90;99.90;;;;;;5017859;28;20021;-80
2021/12/30 11:20:07;;;;;;;8.43;4.95;;;9.90;99.90;;;;;;5032349;28;20502;-81
2021/12/30 11:22:35;;;;;;;8.38;5.05;;;9.90;99.90;;;;;;5031246;28;20451;-78
2021/12/30 11:25:04;;;;;;;7.90;5.05;;;9.90;99.90;;;;;;5047597;28;20112;-78
2021/12/30 11:27:32;;;;;;;7.82;5.00;;;9.90;99.90;;;;;;5031528;28;20022;-79
2021/12/30 11:30:00;;;;;;;8.70;5.32;;;9.90;99.90;;;;;;5030970;28;20029;-80
2021/12/30 11:32:28;;;;;;;10.13;5.53;;;9.90;99.90;;;;;;5031485;28;20029;-80
2021/12/30 11:34:56;;;;;;;7.90;5.20;;;9.90;99.90;;;;;;5030036;28;20495;-80
2021/12/30 11:37:22;;;;;;;8.00;4.93;;;9.90;99.90;;;;;;5001983;28;20104;-79
2021/12/30 11:39:52;;;;;;;9.45;5.28;;;9.90;99.90;;;;;;5010852;28;20156;-79
2021/12/30 11:42:21;;;;;;;12.27;6.00;;;9.90;99.90;;;;;;5010702;28;20022;-79
2021/12/30 11:44:48;;;;;;;7.97;5.03;;;9.90;99.90;;;;;;5010536;28;20026;-79
2021/12/30 11:47:35;;;;;;;9.30;5.22;;;9.90;99.90;;;;;;5010120;28;20030;-79
2021/12/30 11:50:09;;;;;;;8.15;5.07;;;9.90;99.90;;;;;;5012113;28;20084;-79
2021/12/30 11:52:56;;;;;;;7.93;5.38;;;9.90;99.90;;;;;;5010263;28;20095;-79
2021/12/30 11:55:39;;;;;;;8.68;5.30;;;9.90;99.90;;;;;;5012562;28;20033;-80
2021/12/30 11:58:27;;;;;;;9.27;5.60;;;9.90;99.90;;;;;;5008160;28;20030;-80
2021/12/30 12:00:53;;;;;;;8.50;5.28;;;9.90;99.90;;;;;;5012984;28;20022;-79
2021/12/30 12:03:34;;;;;;;14.13;5.75;;;9.90;99.90;;;;;;5015070;28;20072;-80
2021/12/30 12:06:04;;;;;;;7.28;4.68;;;10.00;99.90;;;;;;5014106;28;20029;-80
2021/12/30 12:08:43;;;;;;;8.13;4.90;;;9.90;99.90;;;;;;5012439;28;20036;-81
2021/12/30 12:11:22;;;;;;;9.13;5.10;;;9.90;99.90;;;;;;5014046;28;20029;-81
2021/12/30 12:13:49;;;;;;;8.35;5.20;;;10.00;99.90;;;;;;5016019;28;20080;-78
2021/12/30 12:16:36;;;;;;;7.63;4.95;;;10.00;99.90;;;;;;5014183;28;20041;-80
2021/12/30 12:19:07;;;;;;;8.10;4.97;;;10.00;99.90;;;;;;5009365;28;20013;-80
2021/12/30 12:21:51;;;;;;;8.07;5.25;;;10.00;99.90;;;;;;5011372;28;20017;-80
2021/12/30 12:24:32;;;;;;;8.15;5.15;;;10.00;99.90;;;;;;5008757;28;20113;-80
2021/12/30 12:27:28;;;;;;;7.65;4.57;;;10.00;99.90;;;;;;5013847;28;20047;-79
2021/12/30 12:29:57;;;;;;;7.90;4.70;;;10.00;99.90;;;;;;5013163;28;20043;-78
2021/12/30 12:32:39;;;;;;;8.70;4.90;;;10.00;99.90;;;;;;5012788;28;20026;-79
2021/12/30 12:35:23;;;;;;;8.15;5.07;;;10.00;99.90;;;;;;4999526;28;20102;-79
2021/12/30 12:38:00;;;;;;;7.82;5.05;;;10.00;99.90;;;;;;4993979;28;20022;-83
2021/12/30 12:40:29;;;;;;;12.27;5.20;;;10.00;99.90;;;;;;4993808;28;20027;-81
2021/12/30 12:43:02;;;;;;;8.60;4.70;;;10.00;99.90;;;;;;4992863;28;20197;-80
2021/12/30 12:45:35;;;;;;;9.35;4.43;;;10.00;99.90;;;;;;5011608;22;20026;-80
2021/12/30 12:48:17;;;;;;;9.27;4.70;;;10.10;99.90;;;;;;4990602;28;20089;-80
2021/12/30 12:50:44;;;;;;;;;;;10.10;99.90;;;;;;4993618;28;20387;-81
2021/12/30 12:53:26;;;;;;;8.23;4.57;;;10.10;99.90;;;;;;4993779;28;20004;-80